Disney Wonder — C6QM8 — position and weather

sailwx.info

Track history (hours):
 
Tides and Currents Weather Stations Pressure Air Temp Water Temp Dewpoint Dewpoint Depression Visibility Wind Speed Wind Dir Waves Ship Positions

Disney Wonder

Last reported at 2019-May-20 17:00 UTC. Time now 2019-May-20 17:16 UTC.
Position N 49°17' W 123°07'.

Length 301 m; draft 8.2 m.

Type: Passenger vessel. MMSI: 308457000.

Date/timePositionNaut miles runAvg speedWind from/ knotsBaromVisibWave heightAir tempDewpointWater temp
2019-May-20 17:00N 49°17' W 123°07'0 0.0
2019-May-20 16:30N 49°17' W 123°07'0 0.0
2019-May-20 16:00N 49°17' W 123°07'0 0.0
2019-May-20 15:30N 49°17' W 123°07'0 0.0
2019-May-20 15:00N 49°17' W 123°07'0 0.0
2019-May-20 14:30N 49°17' W 123°07'0 0.0
2019-May-20 14:01N 49°17' W 123°07'0 0.8
2019-May-20 13:31N 49°18' W 123°06'4 7.6
2019-May-20 13:00N 49°19' W 123°12'4 8.3
2019-May-20 12:31N 49°17' W 123°18'4 8.7
2019-May-20 12:00N 49°13' W 123°20'4 8.9
2019-May-20 11:31N 49°09' W 123°21'4 8.7
2019-May-20 11:00N 49°04' W 123°20'4 8.7
2019-May-20 10:30N 49°01' W 123°16'4 8.8
2019-May-20 10:00N 48°58' W 123°11'5 9.1
2019-May-20 09:30N 48°55' W 123°06'510.7
2019-May-20 09:00N 48°51' W 123°01'5 9.2
2019-May-20 08:30N 48°46' W 123°02'510.4
2019-May-20 08:00N 48°44' W 123°09'510.2
2019-May-20 07:30N 48°41' W 123°15'510.9
2019-May-20 07:01N 48°36' W 123°13'510.4
2019-May-20 06:31N 48°31' W 123°11'510.0
2019-May-20 06:01N 48°26' W 123°10'4 8.8
2019-May-20 05:31N 48°23' W 123°15'5 9.4
2019-May-20 05:00N 48°22' W 123°22'3 5.5
2019-May-20 04:28N 48°25' W 123°24'0 0.0
2019-May-20 03:58N 48°25' W 123°24'0 0.0
2019-May-20 03:28N 48°25' W 123°24'0 0.0
2019-May-20 02:58N 48°25' W 123°24'0 0.0
2019-May-20 02:28N 48°25' W 123°24'0 0.0
2019-May-20 01:58N 48°25' W 123°24'0 0.0
2019-May-20 01:28N 48°25' W 123°24'0 0.0
2019-May-20 00:58N 48°25' W 123°24'0 0.0
2019-May-20 00:28N 48°25' W 123°24'0 0.0
2019-May-19 23:58N 48°25' W 123°24'0 0.0
2019-May-19 23:28N 48°25' W 123°24'0 0.0
2019-May-19 22:58N 48°25' W 123°24'0 0.0
2019-May-19 22:28N 48°25' W 123°24'0 0.0
2019-May-19 21:58N 48°25' W 123°24'0 0.0
2019-May-19 21:28N 48°25' W 123°24'0 0.0
2019-May-19 20:58N 48°25' W 123°24'0 0.0
2019-May-19 20:28N 48°25' W 123°24'0 0.0
2019-May-19 19:58N 48°25' W 123°24'0 0.0
2019-May-19 19:28N 48°25' W 123°24'0 0.0
2019-May-19 18:58N 48°25' W 123°24'0 0.0
2019-May-19 18:28N 48°25' W 123°24'0 0.0
2019-May-19 17:58N 48°25' W 123°24'0 0.0
2019-May-19 17:28N 48°25' W 123°24'0 0.2
2019-May-19 17:00N 48°25' W 123°24'2 3.2
2019-May-19 16:30N 48°23' W 123°24'510.1
2019-May-19 16:00N 48°18' W 123°25'2311.1
2019-May-19 13:58N 48°14' W 123°59'612.5
2019-May-19 13:29N 48°17' W 124°07'714.1
2019-May-19 13:01N 48°19' W 124°16'917.6
2019-May-19 12:30N 48°23' W 124°28'918.0
2019-May-19 12:00N 48°27' W 124°40'917.7
2019-May-19 11:30N 48°29' W 124°53'815.8
2019-May-19 11:00N 48°24' W 125°03'917.9
2019-May-19 10:30N 48°16' W 125°08'7217.4
2019-May-19 06:23N 47°04' W 125°15'411.4
2019-May-19 06:00N 47°00' W 125°12'637.2 130 / 141019.410.8 13.0 9.115.0
2019-May-19 05:50N 46°54' W 125°14'617.7
2019-May-19 05:30N 46°48' W 125°14'917.4
2019-May-19 05:00N 46°40' W 125°13'817.3
2019-May-19 04:31N 46°31' W 125°12'917.3
2019-May-19 04:01N 46°23' W 125°12'917.3
2019-May-19 03:30N 46°14' W 125°11'917.7
2019-May-19 03:00N 46°05' W 125°11'917.8
2019-May-19 02:30N 45°56' W 125°10'918.0
2019-May-19 02:00N 45°47' W 125°09'917.6
2019-May-19 01:31N 45°38' W 125°08'917.4
2019-May-19 01:00N 45°30' W 125°08'13819.7
2019-May-18 18:00N 43°12' W 124°54'25521.2 170 / 331023.410.8 14.0 8.016.0
2019-May-18 06:00N 39°00' W 124°06'1821.1 160 / 91023.410.8 14.0 8.016.0
2019-May-18 05:08N 38°44' W 123°55'320.8
2019-May-18 04:58N 38°41' W 123°52'1020.6
2019-May-18 04:29N 38°34' W 123°45'1020.7
2019-May-18 04:00N 38°26' W 123°37'1020.8
2019-May-18 03:30N 38°17' W 123°29'1020.7
2019-May-18 03:00N 38°09' W 123°21'1020.8
2019-May-18 02:31N 38°01' W 123°12'1020.6
2019-May-18 02:01N 37°55' W 123°02'1020.8
2019-May-18 01:31N 37°50' W 122°50'917.2
2019-May-18 01:00N 37°46' W 122°41'815.6
2019-May-18 00:30N 37°48' W 122°31'611.7
2019-May-18 00:00N 37°48' W 122°24'0 0.2
2019-May-17 23:29N 37°48' W 122°24'0 0.0
2019-May-17 22:59N 37°48' W 122°24'0 0.0
2019-May-17 22:29N 37°48' W 122°24'0 0.0
2019-May-17 21:59N 37°48' W 122°24'0 0.0
2019-May-17 21:29N 37°48' W 122°24'0 0.0
2019-May-17 20:59N 37°48' W 122°24'0 0.0
2019-May-17 20:29N 37°48' W 122°24'0 0.0
2019-May-17 19:59N 37°48' W 122°24'0 0.0
2019-May-17 19:29N 37°48' W 122°24'0 0.0
2019-May-17 18:59N 37°48' W 122°24'0 0.0
2019-May-17 18:29N 37°48' W 122°24'0 0.0
2019-May-17 17:59N 37°48' W 122°24'0 0.0
2019-May-17 17:29N 37°48' W 122°24'0 0.0
2019-May-17 16:59N 37°48' W 122°24'0 0.0
2019-May-17 16:29N 37°48' W 122°24'0 0.0
2019-May-17 15:59N 37°48' W 122°24'0 0.0
2019-May-17 15:29N 37°48' W 122°24'0 0.0
2019-May-17 15:00N 37°48' W 122°24'1 2.1
2019-May-17 14:30N 37°49' W 122°25'611.8
2019-May-17 14:01N 37°47' W 122°32'714.0
2019-May-17 13:30N 37°45' W 122°40'611.7
2019-May-17 13:00N 37°39' W 122°40'815.3
2019-May-17 12:30N 37°31' W 122°40'815.3
2019-May-17 12:00N 37°23' W 122°40'715.0
2019-May-17 11:30N 37°16' W 122°40'815.4
2019-May-17 10:59N 37°08' W 122°42'7114.2
2019-May-17 06:00N 36°00' W 122°18'24211.4 310 / 151023.410.8 14.0 8.016.0
2019-May-16 08:44N 33°12' W 118°46'311.3
2019-May-16 08:27N 33°11' W 118°43'1311.0
2019-May-16 07:18N 33°06' W 118°29'310.8
2019-May-16 07:01N 33°04' W 118°26'511.0
2019-May-16 06:31N 33°02' W 118°20'510.6
2019-May-16 06:00N 32°60' W 118°14'3219.1
2019-May-16 06:00N 33°00' W 118°18'817.1 110 / 61018.410.8 17.011.518.0
2019-May-16 05:30N 32°58' W 118°08'510.5
2019-May-16 05:00N 32°55' W 118°03'510.5
2019-May-16 04:31N 32°53' W 117°57'510.3
2019-May-16 04:01N 32°51' W 117°52'510.2
2019-May-16 03:30N 32°49' W 117°46'510.1
2019-May-16 03:00N 32°47' W 117°41'510.1
2019-May-16 02:31N 32°45' W 117°35'510.8
2019-May-16 02:00N 32°42' W 117°29'510.1
2019-May-16 01:31N 32°40' W 117°24'5 9.7
2019-May-16 01:01N 32°38' W 117°19'4 8.3
2019-May-16 00:31N 32°37' W 117°14'510.6
2019-May-16 00:00N 32°43' W 117°13'2 4.7
2019-May-15 23:29N 32°43' W 117°10'0 0.0
2019-May-15 23:00N 32°43' W 117°10'0 0.0
2019-May-15 22:30N 32°43' W 117°10'0 0.0
2019-May-15 21:42N 32°43' W 117°10'0 0.0
2019-May-15 21:18N 32°43' W 117°10'0 0.0
2019-May-15 20:54N 32°43' W 117°10'0 0.0
2019-May-15 20:30N 32°43' W 117°10'0 0.0
2019-May-15 19:54N 32°43' W 117°10'0 0.0
2019-May-15 19:12N 32°43' W 117°10'0 0.0
2019-May-15 18:06N 32°43' W 117°10'0 0.0
2019-May-15 17:42N 32°43' W 117°10'0 0.0
2019-May-15 17:03N 32°43' W 117°10'0 0.0
2019-May-15 16:57N 32°43' W 117°10'0 0.0
2019-May-15 16:15N 32°43' W 117°10'0 0.0
2019-May-15 15:54N 32°43' W 117°10'0 0.0
2019-May-15 15:30N 32°43' W 117°10'0 0.0
2019-May-15 14:51N 32°43' W 117°10'0 0.0
2019-May-15 14:24N 32°43' W 117°10'0 0.0
2019-May-15 14:00N 32°43' W 117°10'0 0.1
2019-May-15 13:30N 32°43' W 117°10'3 5.7
2019-May-15 13:00N 32°42' W 117°14'611.4
2019-May-15 12:30N 32°37' W 117°14'4 8.6
2019-May-15 12:00N 32°33' W 117°17'5 9.3
2019-May-15 11:30N 32°29' W 117°20'5 9.4
2019-May-15 11:00N 32°24' W 117°21'5 9.6
2019-May-15 10:30N 32°20' W 117°22'5 9.5
2019-May-15 10:00N 32°15' W 117°21'7 9.8
2019-May-15 09:19N 32°08' W 117°19'8 9.8
2019-May-15 08:33N 32°01' W 117°18'1 9.6
2019-May-15 08:28N 32°00' W 117°18'4 9.7
2019-May-15 08:00N 31°56' W 117°17'5308.7
2019-May-15 08:00N 31°54' W 117°12'510.4 260 / 101016.0 5.4 17.013.518.0
2019-May-15 07:30N 31°51' W 117°17'1510.1
2019-May-15 06:00N 31°36' W 117°12'34 8.4 350 / 91019.410.8 16.012.417.0
2019-May-15 01:54N 31°02' W 117°10'4 9.1
2019-May-15 01:30N 30°58' W 117°10'41 9.1
2019-May-14 21:00N 30°18' W 117°00'2412.0 300 / 191015.0 5.4 18.016.318.0
2019-May-14 19:00N 29°54' W 117°00'102 7.7 310 / 141020.410.8 16.012.417.0
2019-May-14 05:45N 31°36' W 117°06'32 1.3
2019-May-13 06:00N 32°06' W 117°18'963.6 280 / 51018.410.8 17.013.518.0
2019-May-13 05:51N 32°12' W 117°26'6 7.4
2019-May-13 05:02N 32°17' W 117°31'0 7.8
2019-May-13 05:00N 32°17' W 117°31'4 7.7
2019-May-13 04:30N 32°20' W 117°33'4 7.6
2019-May-13 04:00N 32°24' W 117°34'4 7.8
2019-May-13 03:30N 32°28' W 117°34'4 7.2
2019-May-13 03:00N 32°30' W 117°31'4 7.8
2019-May-13 02:30N 32°32' W 117°27'4 7.6
2019-May-13 02:00N 32°34' W 117°23'4 7.8
2019-May-13 01:30N 32°35' W 117°19'4 7.7
2019-May-13 01:00N 32°37' W 117°15'4 7.0
2019-May-13 00:30N 32°40' W 117°14'4 7.2
2019-May-13 00:00N 32°43' W 117°11'0 0.5
2019-May-12 23:01N 32°43' W 117°10'0 0.0
2019-May-12 22:58N 32°43' W 117°10'0 0.0
2019-May-12 21:58N 32°43' W 117°10'0 0.0
2019-May-12 21:28N 32°43' W 117°10'0 0.0
2019-May-12 20:58N 32°43' W 117°10'0 0.0
2019-May-12 20:28N 32°43' W 117°10'0 0.0
2019-May-12 19:52N 32°43' W 117°10'0 0.0
2019-May-12 19:28N 32°43' W 117°10'0 0.0
2019-May-12 18:52N 32°43' W 117°10'0 0.0
2019-May-12 18:28N 32°43' W 117°10'0 0.0
2019-May-12 17:46N 32°43' W 117°10'0 0.0
2019-May-12 17:13N 32°43' W 117°10'0 0.0
2019-May-12 16:52N 32°43' W 117°10'0 0.0
2019-May-12 16:28N 32°43' W 117°10'0 0.0
2019-May-12 15:58N 32°43' W 117°10'0 0.0
2019-May-12 15:28N 32°43' W 117°10'0 0.0
2019-May-12 14:52N 32°43' W 117°10'0 0.0
2019-May-12 14:28N 32°43' W 117°10'0 0.0
2019-May-12 13:58N 32°43' W 117°10'0 0.0
2019-May-12 13:29N 32°43' W 117°10'3 5.4
2019-May-12 13:00N 32°43' W 117°13'510.9
2019-May-12 12:30N 32°37' W 117°14'510.2
2019-May-12 12:00N 32°33' W 117°17'510.8
2019-May-12 11:30N 32°28' W 117°21'5 9.3
2019-May-12 11:01N 32°23' W 117°21'612.4
2019-May-12 10:31N 32°17' W 117°22'713.0
2019-May-12 10:00N 32°11' W 117°19'50 9.9
2019-May-12 05:00N 31°24' W 117°00'20018.2 330 / 131018.410.8 18.012.718.0
2019-May-11 18:00N 28°12' W 115°54'6616.4 340 / 51018.410.8 18.012.718.0
2019-May-11 14:00N 27°18' W 115°12'4514.9 150 / 121018.410.8 19.0 17.0
2019-May-11 11:00N 26°42' W 114°42'9816.3 170 / 221017.410.8 19.0 19.0
2019-May-11 05:00N 25°24' W 113°36'6917.3 230 / 71018.410.8 19.015.618.0
2019-May-11 01:00N 24°30' W 112°48'2929.1 170 / 131017.410.8 19.0 20.0
2019-May-11 00:00N 24°06' W 112°30'   170 / 151017.410.8 19.0 18.0
Track history (hours):
 
Tides and Currents Weather Stations Pressure Air Temp Water Temp Dewpoint Dewpoint Depression Visibility Wind Speed Wind Dir Waves Ship Positions

Disney Wonder

Last reported at 2019-May-20 17:00 UTC. Time now 2019-May-20 17:16 UTC.
Position N 49°17' W 123°07'.

Length 301 m; draft 8.2 m.

Type: Passenger vessel. MMSI: 308457000.

Date/timePositionNaut miles runAvg speedWind from/ knotsBaromVisibWave heightAir tempDewpointWater temp
2019-May-20 17:00N 49°17' W 123°07'0 0.0
2019-May-20 16:30N 49°17' W 123°07'0 0.0
2019-May-20 16:00N 49°17' W 123°07'0 0.0
2019-May-20 15:30N 49°17' W 123°07'0 0.0
2019-May-20 15:00N 49°17' W 123°07'0 0.0
2019-May-20 14:30N 49°17' W 123°07'0 0.0
2019-May-20 14:01N 49°17' W 123°07'0 0.8
2019-May-20 13:31N 49°18' W 123°06'4 7.6
2019-May-20 13:00N 49°19' W 123°12'4 8.3
2019-May-20 12:31N 49°17' W 123°18'4 8.7
2019-May-20 12:00N 49°13' W 123°20'4 8.9
2019-May-20 11:31N 49°09' W 123°21'4 8.7
2019-May-20 11:00N 49°04' W 123°20'4 8.7
2019-May-20 10:30N 49°01' W 123°16'4 8.8
2019-May-20 10:00N 48°58' W 123°11'5 9.1
2019-May-20 09:30N 48°55' W 123°06'510.7
2019-May-20 09:00N 48°51' W 123°01'5 9.2
2019-May-20 08:30N 48°46' W 123°02'510.4
2019-May-20 08:00N 48°44' W 123°09'510.2
2019-May-20 07:30N 48°41' W 123°15'510.9
2019-May-20 07:01N 48°36' W 123°13'510.4
2019-May-20 06:31N 48°31' W 123°11'510.0
2019-May-20 06:01N 48°26' W 123°10'4 8.8
2019-May-20 05:31N 48°23' W 123°15'5 9.4
2019-May-20 05:00N 48°22' W 123°22'3 5.5
2019-May-20 04:28N 48°25' W 123°24'0 0.0
2019-May-20 03:58N 48°25' W 123°24'0 0.0
2019-May-20 03:28N 48°25' W 123°24'0 0.0
2019-May-20 02:58N 48°25' W 123°24'0 0.0
2019-May-20 02:28N 48°25' W 123°24'0 0.0
2019-May-20 01:58N 48°25' W 123°24'0 0.0
2019-May-20 01:28N 48°25' W 123°24'0 0.0
2019-May-20 00:58N 48°25' W 123°24'0 0.0
2019-May-20 00:28N 48°25' W 123°24'0 0.0
2019-May-19 23:58N 48°25' W 123°24'0 0.0
2019-May-19 23:28N 48°25' W 123°24'0 0.0
2019-May-19 22:58N 48°25' W 123°24'0 0.0
2019-May-19 22:28N 48°25' W 123°24'0 0.0
2019-May-19 21:58N 48°25' W 123°24'0 0.0
2019-May-19 21:28N 48°25' W 123°24'0 0.0
2019-May-19 20:58N 48°25' W 123°24'0 0.0
2019-May-19 20:28N 48°25' W 123°24'0 0.0
2019-May-19 19:58N 48°25' W 123°24'0 0.0
2019-May-19 19:28N 48°25' W 123°24'0 0.0
2019-May-19 18:58N 48°25' W 123°24'0 0.0
2019-May-19 18:28N 48°25' W 123°24'0 0.0
2019-May-19 17:58N 48°25' W 123°24'0 0.0
2019-May-19 17:28N 48°25' W 123°24'0 0.2
2019-May-19 17:00N 48°25' W 123°24'2 3.2
2019-May-19 16:30N 48°23' W 123°24'510.1
2019-May-19 16:00N 48°18' W 123°25'2311.1
2019-May-19 13:58N 48°14' W 123°59'612.5
2019-May-19 13:29N 48°17' W 124°07'714.1
2019-May-19 13:01N 48°19' W 124°16'917.6
2019-May-19 12:30N 48°23' W 124°28'918.0
2019-May-19 12:00N 48°27' W 124°40'917.7
2019-May-19 11:30N 48°29' W 124°53'815.8
2019-May-19 11:00N 48°24' W 125°03'917.9
2019-May-19 10:30N 48°16' W 125°08'7217.4
2019-May-19 06:23N 47°04' W 125°15'411.4
2019-May-19 06:00N 47°00' W 125°12'637.2 130 / 141019.410.8 13.0 9.115.0
2019-May-19 05:50N 46°54' W 125°14'617.7
2019-May-19 05:30N 46°48' W 125°14'917.4
2019-May-19 05:00N 46°40' W 125°13'817.3
2019-May-19 04:31N 46°31' W 125°12'917.3
2019-May-19 04:01N 46°23' W 125°12'917.3
2019-May-19 03:30N 46°14' W 125°11'917.7
2019-May-19 03:00N 46°05' W 125°11'917.8
2019-May-19 02:30N 45°56' W 125°10'918.0
2019-May-19 02:00N 45°47' W 125°09'917.6
2019-May-19 01:31N 45°38' W 125°08'917.4
2019-May-19 01:00N 45°30' W 125°08'13819.7
2019-May-18 18:00N 43°12' W 124°54'25521.2 170 / 331023.410.8 14.0 8.016.0
2019-May-18 06:00N 39°00' W 124°06'1821.1 160 / 91023.410.8 14.0 8.016.0
2019-May-18 05:08N 38°44' W 123°55'320.8
2019-May-18 04:58N 38°41' W 123°52'1020.6
2019-May-18 04:29N 38°34' W 123°45'1020.7
2019-May-18 04:00N 38°26' W 123°37'1020.8
2019-May-18 03:30N 38°17' W 123°29'1020.7
2019-May-18 03:00N 38°09' W 123°21'1020.8
2019-May-18 02:31N 38°01' W 123°12'1020.6
2019-May-18 02:01N 37°55' W 123°02'1020.8
2019-May-18 01:31N 37°50' W 122°50'917.2
2019-May-18 01:00N 37°46' W 122°41'815.6
2019-May-18 00:30N 37°48' W 122°31'611.7
2019-May-18 00:00N 37°48' W 122°24'0 0.2
2019-May-17 23:29N 37°48' W 122°24'0 0.0
2019-May-17 22:59N 37°48' W 122°24'0 0.0
2019-May-17 22:29N 37°48' W 122°24'0 0.0
2019-May-17 21:59N 37°48' W 122°24'0 0.0
2019-May-17 21:29N 37°48' W 122°24'0 0.0
2019-May-17 20:59N 37°48' W 122°24'0 0.0
2019-May-17 20:29N 37°48' W 122°24'0 0.0
2019-May-17 19:59N 37°48' W 122°24'0 0.0
2019-May-17 19:29N 37°48' W 122°24'0 0.0
2019-May-17 18:59N 37°48' W 122°24'0 0.0
2019-May-17 18:29N 37°48' W 122°24'0 0.0
2019-May-17 17:59N 37°48' W 122°24'0 0.0
2019-May-17 17:29N 37°48' W 122°24'0 0.0
2019-May-17 16:59N 37°48' W 122°24'0 0.0
2019-May-17 16:29N 37°48' W 122°24'0 0.0
2019-May-17 15:59N 37°48' W 122°24'0 0.0
2019-May-17 15:29N 37°48' W 122°24'0 0.0
2019-May-17 15:00N 37°48' W 122°24'1 2.1
2019-May-17 14:30N 37°49' W 122°25'611.8
2019-May-17 14:01N 37°47' W 122°32'714.0
2019-May-17 13:30N 37°45' W 122°40'611.7
2019-May-17 13:00N 37°39' W 122°40'815.3
2019-May-17 12:30N 37°31' W 122°40'815.3
2019-May-17 12:00N 37°23' W 122°40'715.0
2019-May-17 11:30N 37°16' W 122°40'815.4
2019-May-17 10:59N 37°08' W 122°42'7114.2
2019-May-17 06:00N 36°00' W 122°18'24211.4 310 / 151023.410.8 14.0 8.016.0
2019-May-16 08:44N 33°12' W 118°46'311.3
2019-May-16 08:27N 33°11' W 118°43'1311.0
2019-May-16 07:18N 33°06' W 118°29'310.8
2019-May-16 07:01N 33°04' W 118°26'511.0
2019-May-16 06:31N 33°02' W 118°20'510.6
2019-May-16 06:00N 32°60' W 118°14'3219.1
2019-May-16 06:00N 33°00' W 118°18'817.1 110 / 61018.410.8 17.011.518.0
2019-May-16 05:30N 32°58' W 118°08'510.5
2019-May-16 05:00N 32°55' W 118°03'510.5
2019-May-16 04:31N 32°53' W 117°57'510.3
2019-May-16 04:01N 32°51' W 117°52'510.2
2019-May-16 03:30N 32°49' W 117°46'510.1
2019-May-16 03:00N 32°47' W 117°41'510.1
2019-May-16 02:31N 32°45' W 117°35'510.8
2019-May-16 02:00N 32°42' W 117°29'510.1
2019-May-16 01:31N 32°40' W 117°24'5 9.7
2019-May-16 01:01N 32°38' W 117°19'4 8.3
2019-May-16 00:31N 32°37' W 117°14'510.6
2019-May-16 00:00N 32°43' W 117°13'2 4.7
2019-May-15 23:29N 32°43' W 117°10'0 0.0
2019-May-15 23:00N 32°43' W 117°10'0 0.0
2019-May-15 22:30N 32°43' W 117°10'0 0.0
2019-May-15 21:42N 32°43' W 117°10'0 0.0
2019-May-15 21:18N 32°43' W 117°10'0 0.0
2019-May-15 20:54N 32°43' W 117°10'0 0.0
2019-May-15 20:30N 32°43' W 117°10'0 0.0
2019-May-15 19:54N 32°43' W 117°10'0 0.0
2019-May-15 19:12N 32°43' W 117°10'0 0.0
2019-May-15 18:06N 32°43' W 117°10'0 0.0
2019-May-15 17:42N 32°43' W 117°10'0 0.0
2019-May-15 17:03N 32°43' W 117°10'0 0.0
2019-May-15 16:57N 32°43' W 117°10'0 0.0
2019-May-15 16:15N 32°43' W 117°10'0 0.0
2019-May-15 15:54N 32°43' W 117°10'0 0.0
2019-May-15 15:30N 32°43' W 117°10'0 0.0
2019-May-15 14:51N 32°43' W 117°10'0 0.0
2019-May-15 14:24N 32°43' W 117°10'0 0.0
2019-May-15 14:00N 32°43' W 117°10'0 0.1
2019-May-15 13:30N 32°43' W 117°10'3 5.7
2019-May-15 13:00N 32°42' W 117°14'611.4
2019-May-15 12:30N 32°37' W 117°14'4 8.6
2019-May-15 12:00N 32°33' W 117°17'5 9.3
2019-May-15 11:30N 32°29' W 117°20'5 9.4
2019-May-15 11:00N 32°24' W 117°21'5 9.6
2019-May-15 10:30N 32°20' W 117°22'5 9.5
2019-May-15 10:00N 32°15' W 117°21'7 9.8
2019-May-15 09:19N 32°08' W 117°19'8 9.8
2019-May-15 08:33N 32°01' W 117°18'1 9.6
2019-May-15 08:28N 32°00' W 117°18'4 9.7
2019-May-15 08:00N 31°56' W 117°17'5308.7
2019-May-15 08:00N 31°54' W 117°12'510.4 260 / 101016.0 5.4 17.013.518.0
2019-May-15 07:30N 31°51' W 117°17'1510.1
2019-May-15 06:00N 31°36' W 117°12'34 8.4 350 / 91019.410.8 16.012.417.0
2019-May-15 01:54N 31°02' W 117°10'4 9.1
2019-May-15 01:30N 30°58' W 117°10'41 9.1
2019-May-14 21:00N 30°18' W 117°00'2412.0 300 / 191015.0 5.4 18.016.318.0
2019-May-14 19:00N 29°54' W 117°00'102 7.7 310 / 141020.410.8 16.012.417.0
2019-May-14 05:45N 31°36' W 117°06'32 1.3
2019-May-13 06:00N 32°06' W 117°18'963.6 280 / 51018.410.8 17.013.518.0
2019-May-13 05:51N 32°12' W 117°26'6 7.4
2019-May-13 05:02N 32°17' W 117°31'0 7.8
2019-May-13 05:00N 32°17' W 117°31'4 7.7
2019-May-13 04:30N 32°20' W 117°33'4 7.6
2019-May-13 04:00N 32°24' W 117°34'4 7.8
2019-May-13 03:30N 32°28' W 117°34'4 7.2
2019-May-13 03:00N 32°30' W 117°31'4 7.8
2019-May-13 02:30N 32°32' W 117°27'4 7.6
2019-May-13 02:00N 32°34' W 117°23'4 7.8
2019-May-13 01:30N 32°35' W 117°19'4 7.7
2019-May-13 01:00N 32°37' W 117°15'4 7.0
2019-May-13 00:30N 32°40' W 117°14'4 7.2
2019-May-13 00:00N 32°43' W 117°11'0 0.5
2019-May-12 23:01N 32°43' W 117°10'0 0.0
2019-May-12 22:58N 32°43' W 117°10'0 0.0
2019-May-12 21:58N 32°43' W 117°10'0 0.0
2019-May-12 21:28N 32°43' W 117°10'0 0.0
2019-May-12 20:58N 32°43' W 117°10'0 0.0
2019-May-12 20:28N 32°43' W 117°10'0 0.0
2019-May-12 19:52N 32°43' W 117°10'0 0.0
2019-May-12 19:28N 32°43' W 117°10'0 0.0
2019-May-12 18:52N 32°43' W 117°10'0 0.0
2019-May-12 18:28N 32°43' W 117°10'0 0.0
2019-May-12 17:46N 32°43' W 117°10'0 0.0
2019-May-12 17:13N 32°43' W 117°10'0 0.0
2019-May-12 16:52N 32°43' W 117°10'0 0.0
2019-May-12 16:28N 32°43' W 117°10'0 0.0
2019-May-12 15:58N 32°43' W 117°10'0 0.0
2019-May-12 15:28N 32°43' W 117°10'0 0.0
2019-May-12 14:52N 32°43' W 117°10'0 0.0
2019-May-12 14:28N 32°43' W 117°10'0 0.0
2019-May-12 13:58N 32°43' W 117°10'0 0.0
2019-May-12 13:29N 32°43' W 117°10'3 5.4
2019-May-12 13:00N 32°43' W 117°13'510.9
2019-May-12 12:30N 32°37' W 117°14'510.2
2019-May-12 12:00N 32°33' W 117°17'510.8
2019-May-12 11:30N 32°28' W 117°21'5 9.3
2019-May-12 11:01N 32°23' W 117°21'612.4
2019-May-12 10:31N 32°17' W 117°22'713.0
2019-May-12 10:00N 32°11' W 117°19'50 9.9
2019-May-12 05:00N 31°24' W 117°00'20018.2 330 / 131018.410.8 18.012.718.0
2019-May-11 18:00N 28°12' W 115°54'6616.4 340 / 51018.410.8 18.012.718.0
2019-May-11 14:00N 27°18' W 115°12'4514.9 150 / 121018.410.8 19.0 17.0
2019-May-11 11:00N 26°42' W 114°42'9816.3 170 / 221017.410.8 19.0 19.0
2019-May-11 05:00N 25°24' W 113°36'6917.3 230 / 71018.410.8 19.015.618.0
2019-May-11 01:00N 24°30' W 112°48'2929.1 170 / 131017.410.8 19.0 20.0
2019-May-11 00:00N 24°06' W 112°30'   170 / 151017.410.8 19.0 18.0

Dump ship's entire track history